Time;durP1;ratioP1;P1;durP2;ratioP2;P2;SDS_P1;SDS_P2;PMS_P1;PMS_P2;Temp;Humidity;BMP_temperature;BMP_pressure;BME280_temperature;BME280_humidity;BME280_pressure;Samples;Min_cycle;Max_cycle;Signal;HPM_P1;HPM_P2
2021/11/05 00:00:15;;;;;;;3.42;3.13;;;7.40;99.90;;;;;;4956862;28;20499;-73
2021/11/05 00:02:40;;;;;;;2.80;2.60;;;7.30;99.90;;;;;;4972739;28;20023;-73
2021/11/05 00:05:06;;;;;;;2.22;2.03;;;7.30;99.90;;;;;;4967740;28;20468;-73
2021/11/05 00:07:31;;;;;;;4.57;2.60;;;7.30;99.90;;;;;;4973130;28;20038;-72
2021/11/05 00:09:57;;;;;;;2.63;2.25;;;7.30;99.90;;;;;;4973498;28;20031;-73
2021/11/05 00:12:23;;;;;;;4.10;2.78;;;7.30;99.90;;;;;;4973955;28;20054;-73
2021/11/05 00:14:48;;;;;;;2.58;2.38;;;7.40;99.90;;;;;;4989927;28;20026;-72
2021/11/05 00:17:14;;;;;;;2.60;2.40;;;7.30;99.90;;;;;;4977130;28;20031;-72
2021/11/05 00:19:39;;;;;;;2.63;2.42;;;7.30;99.90;;;;;;4972845;28;20023;-72
2021/11/05 00:22:06;;;;;;;3.08;2.20;;;7.40;99.90;;;;;;4973944;28;20023;-74
2021/11/05 00:24:31;;;;;;;2.95;2.40;;;7.30;99.90;;;;;;4977802;28;20035;-74
2021/11/05 00:26:57;;;;;;;2.75;2.35;;;7.30;99.90;;;;;;4977694;28;20487;-72
2021/11/05 00:29:23;;;;;;;3.17;2.35;;;7.30;99.90;;;;;;4971042;28;20035;-72
2021/11/05 00:31:48;;;;;;;2.70;2.47;;;7.20;99.90;;;;;;4964626;28;20492;-73
2021/11/05 00:34:17;;;;;;;3.10;2.80;;;7.20;99.90;;;;;;4956468;28;20031;-73
2021/11/05 00:36:44;;;;;;;3.53;2.80;;;7.20;99.90;;;;;;4966948;28;20561;-72
2021/11/05 00:39:10;;;;;;;2.92;2.35;;;7.20;99.90;;;;;;4968050;28;20480;-73
2021/11/05 00:41:35;;;;;;;2.78;2.40;;;7.20;99.90;;;;;;4966101;28;20031;-72
2021/11/05 00:44:01;;;;;;;4.63;2.75;;;7.20;99.90;;;;;;4988763;28;20039;-74
2021/11/05 00:46:26;;;;;;;2.55;2.35;;;7.20;99.90;;;;;;4956471;29;20439;-74
2021/11/05 00:48:52;;;;;;;3.05;2.83;;;7.30;99.90;;;;;;4956191;29;20026;-73
2021/11/05 00:51:17;;;;;;;2.80;2.40;;;7.20;99.90;;;;;;4971216;28;20109;-74
2021/11/05 00:53:43;;;;;;;2.70;2.50;;;7.20;99.90;;;;;;4964744;28;20055;-73
2021/11/05 00:56:08;;;;;;;2.67;2.47;;;7.20;99.90;;;;;;4968944;28;20509;-74
2021/11/05 00:58:34;;;;;;;5.57;2.75;;;7.20;99.90;;;;;;4976814;28;20038;-74
2021/11/05 01:00:59;;;;;;;2.75;2.55;;;7.10;99.90;;;;;;4974709;28;20021;-73
2021/11/05 01:03:25;;;;;;;3.28;2.97;;;7.10;99.90;;;;;;4974561;28;20055;-74
2021/11/05 01:05:51;;;;;;;3.17;2.97;;;7.10;99.90;;;;;;4957257;28;20492;-72
2021/11/05 01:08:16;;;;;;;2.80;2.60;;;7.10;99.90;;;;;;4957007;28;20046;-73
2021/11/05 01:10:42;;;;;;;3.55;2.83;;;7.20;99.90;;;;;;4957280;28;20381;-73
2021/11/05 01:13:08;;;;;;;2.47;2.28;;;7.20;99.90;;;;;;4980456;28;20422;-74
2021/11/05 01:15:34;;;;;;;3.05;2.80;;;7.20;99.90;;;;;;4971746;28;20515;-74
2021/11/05 01:17:59;;;;;;;3.10;2.80;;;7.10;99.90;;;;;;4971357;28;20031;-74
2021/11/05 01:20:25;;;;;;;2.75;2.55;;;7.10;99.90;;;;;;4976654;28;20023;-74
2021/11/05 01:22:51;;;;;;;3.22;2.92;;;7.10;99.90;;;;;;4970816;28;20039;-72
2021/11/05 01:25:17;;;;;;;2.60;2.40;;;7.10;99.90;;;;;;4973268;28;20395;-75
2021/11/05 01:27:45;;;;;;;3.00;2.40;;;7.10;99.90;;;;;;4972052;28;20030;-73
2021/11/05 01:30:12;;;;;;;2.40;2.20;;;7.10;99.90;;;;;;4972261;28;20031;-73
2021/11/05 01:32:38;;;;;;;4.07;2.95;;;7.10;99.90;;;;;;4975125;28;20452;-73
2021/11/05 01:35:05;;;;;;;3.58;2.70;;;7.10;99.90;;;;;;4985339;28;20038;-72
2021/11/05 01:37:31;;;;;;;3.47;2.50;;;7.20;99.90;;;;;;4980303;28;20034;-72
2021/11/05 01:39:56;;;;;;;3.60;3.30;;;7.10;99.90;;;;;;4985109;28;20019;-80
2021/11/05 01:42:22;;;;;;;3.38;2.60;;;7.10;99.90;;;;;;5014785;28;20086;-80
2021/11/05 01:44:49;;;;;;;3.03;2.83;;;7.10;99.90;;;;;;4983935;28;20110;-77
2021/11/05 01:47:14;;;;;;;2.97;2.55;;;7.00;99.90;;;;;;4992050;28;20035;-78
2021/11/05 01:49:40;;;;;;;3.03;2.83;;;7.00;99.90;;;;;;4984586;28;20031;-78
2021/11/05 01:52:07;;;;;;;2.83;2.42;;;7.00;99.90;;;;;;4994212;28;20070;-79
2021/11/05 01:54:33;;;;;;;3.25;2.20;;;7.00;99.90;;;;;;4984004;28;20487;-78
2021/11/05 01:56:59;;;;;;;3.20;2.83;;;7.00;99.90;;;;;;4983118;28;20031;-79
2021/11/05 01:59:28;;;;;;;3.40;3.10;;;7.00;99.90;;;;;;4981460;28;20051;-80
2021/11/05 02:01:55;;;;;;;3.28;2.97;;;6.90;99.90;;;;;;4980330;28;20397;-80
2021/11/05 02:04:21;;;;;;;2.97;2.75;;;7.00;99.90;;;;;;4971996;28;20085;-80
2021/11/05 02:06:48;;;;;;;3.70;3.40;;;6.90;99.90;;;;;;4979322;28;20454;-79
2021/11/05 02:09:17;;;;;;;4.22;2.90;;;6.90;99.90;;;;;;4981362;28;20093;-79
2021/11/05 02:11:43;;;;;;;3.15;2.85;;;6.90;99.90;;;;;;4980535;28;20027;-78
2021/11/05 02:14:14;;;;;;;2.88;2.67;;;6.90;99.90;;;;;;4982519;28;20436;-79
2021/11/05 02:16:46;;;;;;;3.90;2.65;;;6.90;99.90;;;;;;4984526;28;20034;-79
2021/11/05 02:19:15;;;;;;;2.95;2.70;;;6.80;99.90;;;;;;4966192;28;20027;-79
2021/11/05 02:21:42;;;;;;;4.28;2.80;;;6.80;99.90;;;;;;4962255;28;20015;-80
2021/11/05 02:24:09;;;;;;;3.30;3.00;;;6.90;99.90;;;;;;4968688;28;20027;-79
2021/11/05 02:26:35;;;;;;;3.17;2.88;;;6.90;99.90;;;;;;4975868;28;20110;-80
2021/11/05 02:29:02;;;;;;;2.92;2.72;;;6.90;99.90;;;;;;4976814;28;20035;-80
2021/11/05 02:31:28;;;;;;;3.92;3.35;;;6.90;99.90;;;;;;4971252;28;20069;-80
2021/11/05 02:33:53;;;;;;;4.45;3.78;;;6.90;99.90;;;;;;4976460;28;20026;-80
2021/11/05 02:36:19;;;;;;;3.78;3.20;;;6.90;99.90;;;;;;4973006;28;20059;-80
2021/11/05 02:38:44;;;;;;;4.10;3.70;;;6.90;99.90;;;;;;4957257;28;20111;-80
2021/11/05 02:41:10;;;;;;;4.40;3.40;;;6.90;99.90;;;;;;4957153;28;20038;-79
2021/11/05 02:43:36;;;;;;;3.88;2.83;;;6.90;99.90;;;;;;4962542;28;20030;-79
2021/11/05 02:46:01;;;;;;;3.33;3.03;;;6.90;99.90;;;;;;4970904;28;20031;-79
2021/11/05 02:48:27;;;;;;;4.03;3.72;;;6.90;99.90;;;;;;4965214;28;20046;-77
2021/11/05 02:50:54;;;;;;;4.10;3.80;;;6.90;99.90;;;;;;4981629;28;20027;-78
2021/11/05 02:53:20;;;;;;;3.40;3.10;;;6.80;99.90;;;;;;4981573;28;20106;-77
2021/11/05 02:55:46;;;;;;;3.60;3.30;;;6.90;99.90;;;;;;4981059;28;20039;-76
2021/11/05 02:58:13;;;;;;;3.90;3.08;;;6.90;99.90;;;;;;4972752;28;20571;-76
2021/11/05 03:00:39;;;;;;;3.17;2.92;;;6.90;99.90;;;;;;4977116;28;20018;-80
2021/11/05 03:03:05;;;;;;;3.05;2.75;;;6.90;99.90;;;;;;4979474;28;20023;-81
2021/11/05 03:05:31;;;;;;;2.67;2.47;;;6.90;99.90;;;;;;4983350;28;20089;-78
2021/11/05 03:07:56;;;;;;;4.53;2.80;;;6.90;99.90;;;;;;4998196;28;20027;-78
2021/11/05 03:10:22;;;;;;;4.07;3.30;;;6.90;99.90;;;;;;5011863;28;20022;-78
2021/11/05 03:12:48;;;;;;;3.28;3.05;;;6.90;99.90;;;;;;4977260;28;20030;-78
2021/11/05 03:15:14;;;;;;;3.20;2.90;;;6.90;99.90;;;;;;4988860;28;20038;-78
2021/11/05 03:17:39;;;;;;;2.83;2.63;;;6.90;99.90;;;;;;4984955;28;20485;-78
2021/11/05 03:20:08;;;;;;;4.47;2.83;;;6.90;99.90;;;;;;4989344;28;20051;-79
2021/11/05 03:22:34;;;;;;;2.90;2.70;;;6.90;99.90;;;;;;4974063;28;20103;-79
2021/11/05 03:24:59;;;;;;;2.80;2.60;;;6.90;99.90;;;;;;4990462;28;20034;-79
2021/11/05 03:27:25;;;;;;;3.90;3.25;;;6.90;99.90;;;;;;4976808;28;20012;-79
2021/11/05 03:29:50;;;;;;;3.40;3.10;;;6.90;99.90;;;;;;4976025;28;20030;-80
2021/11/05 03:32:16;;;;;;;3.50;3.20;;;6.90;99.90;;;;;;4992570;28;20074;-80
2021/11/05 03:34:42;;;;;;;3.45;3.15;;;7.00;99.90;;;;;;4976815;28;20039;-79
2021/11/05 03:37:07;;;;;;;3.67;3.17;;;6.90;99.90;;;;;;4976172;28;20027;-80
2021/11/05 03:39:33;;;;;;;3.10;2.83;;;6.90;99.90;;;;;;4976852;28;20050;-80
2021/11/05 03:41:59;;;;;;;2.70;2.50;;;6.90;99.90;;;;;;4977020;28;20019;-79
2021/11/05 03:44:25;;;;;;;2.78;2.50;;;6.90;99.90;;;;;;4973352;28;20030;-80
2021/11/05 03:46:51;;;;;;;4.10;3.80;;;6.90;99.90;;;;;;4957527;28;20035;-79
2021/11/05 03:49:17;;;;;;;4.00;3.13;;;6.90;99.90;;;;;;4955629;28;20550;-78
2021/11/05 03:51:43;;;;;;;3.08;2.78;;;6.90;99.90;;;;;;4959407;28;20031;-78
2021/11/05 03:54:09;;;;;;;2.70;2.50;;;6.90;99.90;;;;;;4959167;28;20086;-79
2021/11/05 03:56:35;;;;;;;3.85;3.05;;;6.90;99.90;;;;;;4972994;28;20018;-79
2021/11/05 03:59:01;;;;;;;2.95;2.75;;;6.90;99.90;;;;;;4975966;28;20634;-80
2021/11/05 04:01:27;;;;;;;3.17;2.97;;;6.90;99.90;;;;;;4994410;28;20082;-80
2021/11/05 04:03:53;;;;;;;3.85;3.55;;;6.90;99.90;;;;;;4993525;28;20039;-80
2021/11/05 04:06:20;;;;;;;2.85;2.65;;;7.00;99.90;;;;;;4983753;28;20027;-79
2021/11/05 04:08:46;;;;;;;3.42;2.70;;;7.00;99.90;;;;;;4992152;28;20035;-79
2021/11/05 04:11:13;;;;;;;2.85;2.65;;;6.90;99.90;;;;;;4986939;28;20019;-79
2021/11/05 04:13:39;;;;;;;2.85;2.65;;;7.00;99.90;;;;;;4977812;28;20035;-79
2021/11/05 04:16:05;;;;;;;5.18;4.75;;;7.00;99.90;;;;;;4980223;28;20046;-79
2021/11/05 04:18:31;;;;;;;3.17;2.97;;;7.00;99.90;;;;;;4994903;28;20071;-80
2021/11/05 04:20:56;;;;;;;3.45;3.13;;;7.00;99.90;;;;;;4992321;28;20138;-78
2021/11/05 04:23:22;;;;;;;3.38;3.08;;;7.00;99.90;;;;;;4982898;28;20070;-79
2021/11/05 04:25:48;;;;;;;3.75;3.42;;;7.00;99.90;;;;;;4976140;28;20475;-79
2021/11/05 04:28:15;;;;;;;3.17;2.88;;;7.00;99.90;;;;;;4975167;28;20494;-78
2021/11/05 04:30:42;;;;;;;3.35;3.05;;;7.00;99.90;;;;;;4975834;28;20026;-79
2021/11/05 04:33:10;;;;;;;4.65;3.38;;;7.10;99.90;;;;;;4967969;28;20033;-79
2021/11/05 04:35:36;;;;;;;3.15;2.88;;;7.10;99.90;;;;;;4991976;28;20031;-79
2021/11/05 04:38:02;;;;;;;3.33;2.97;;;7.10;99.90;;;;;;4983271;28;20091;-78
2021/11/05 04:40:28;;;;;;;3.50;3.25;;;7.10;99.90;;;;;;4993627;28;20015;-79
2021/11/05 04:42:53;;;;;;;2.85;2.60;;;7.10;99.90;;;;;;4985207;28;20030;-80
2021/11/05 04:45:19;;;;;;;3.33;3.03;;;7.10;99.90;;;;;;4985790;28;20035;-78
2021/11/05 04:47:45;;;;;;;3.70;3.25;;;7.20;99.90;;;;;;4992144;28;20033;-79
2021/11/05 04:50:10;;;;;;;3.78;3.45;;;7.10;99.90;;;;;;4993693;28;20031;-79
2021/11/05 04:52:37;;;;;;;3.65;3.30;;;7.20;99.90;;;;;;4979687;28;20506;-80
2021/11/05 04:55:04;;;;;;;4.53;3.67;;;7.20;99.90;;;;;;4973491;28;20050;-78
2021/11/05 04:57:29;;;;;;;3.05;2.85;;;7.20;99.90;;;;;;4973534;28;20106;-78
2021/11/05 04:59:55;;;;;;;4.03;3.70;;;7.20;99.90;;;;;;4975237;28;20403;-77
2021/11/05 05:02:20;;;;;;;4.57;3.83;;;7.10;99.90;;;;;;4979273;28;20458;-79
2021/11/05 05:04:46;;;;;;;3.67;3.33;;;7.10;99.90;;;;;;4973590;28;20027;-79
2021/11/05 05:07:13;;;;;;;2.90;2.70;;;7.10;99.90;;;;;;4962459;28;20079;-80
2021/11/05 05:09:39;;;;;;;2.03;1.90;;;7.00;99.90;;;;;;4965077;28;20019;-79
2021/11/05 05:12:05;;;;;;;1.98;1.88;;;7.00;99.90;;;;;;4964805;28;20031;-79
2021/11/05 05:14:30;;;;;;;2.20;2.00;;;7.00;99.90;;;;;;4980165;28;20071;-80
2021/11/05 05:16:56;;;;;;;1.50;1.30;;;7.10;99.90;;;;;;4989257;28;20019;-79
2021/11/05 05:19:22;;;;;;;2.35;2.03;;;7.00;99.90;;;;;;5000992;28;20026;-79
2021/11/05 05:21:47;;;;;;;2.58;1.75;;;7.10;99.90;;;;;;5000495;28;20086;-78
2021/11/05 05:24:14;;;;;;;1.67;1.58;;;7.00;99.90;;;;;;4991011;28;20037;-79
2021/11/05 05:26:40;;;;;;;2.05;1.85;;;7.00;99.90;;;;;;4983050;28;20086;-78
2021/11/05 05:29:05;;;;;;;1.77;1.67;;;7.00;99.90;;;;;;4981192;28;20058;-79
2021/11/05 05:31:31;;;;;;;2.00;1.90;;;7.00;99.90;;;;;;4981903;28;20057;-80
2021/11/05 05:33:56;;;;;;;2.10;1.88;;;7.00;99.90;;;;;;4980508;28;20069;-80
2021/11/05 05:36:22;;;;;;;1.58;1.48;;;7.00;99.90;;;;;;4982140;28;20027;-78
2021/11/05 05:38:49;;;;;;;2.45;2.15;;;7.00;99.90;;;;;;4983220;28;20026;-78
2021/11/05 05:41:16;;;;;;;1.70;1.60;;;7.00;99.90;;;;;;4983154;28;20050;-77
2021/11/05 05:43:42;;;;;;;1.70;1.55;;;7.00;99.90;;;;;;4982589;28;20022;-79
2021/11/05 05:46:08;;;;;;;2.20;1.52;;;7.00;99.90;;;;;;4973068;28;20031;-78
2021/11/05 05:48:33;;;;;;;2.40;1.48;;;7.00;99.90;;;;;;4984511;28;20027;-77
2021/11/05 05:50:59;;;;;;;1.85;1.65;;;7.00;99.90;;;;;;4984358;28;20035;-79
2021/11/05 05:53:25;;;;;;;2.90;2.38;;;7.00;99.90;;;;;;4980639;28;20086;-78
2021/11/05 05:55:51;;;;;;;1.70;1.52;;;7.00;99.90;;;;;;4989504;28;20022;-79
2021/11/05 05:58:16;;;;;;;3.45;3.08;;;7.00;99.90;;;;;;4993953;28;20030;-77
2021/11/05 06:00:42;;;;;;;4.43;3.38;;;7.00;99.90;;;;;;4992114;28;20054;-76
2021/11/05 06:03:08;;;;;;;2.22;2.00;;;7.00;99.90;;;;;;4987550;28;20030;-77
2021/11/05 06:05:33;;;;;;;1.52;1.42;;;7.00;99.90;;;;;;4981903;28;20105;-77
2021/11/05 06:07:59;;;;;;;2.03;1.60;;;7.00;99.90;;;;;;4980090;28;20037;-77
2021/11/05 06:10:24;;;;;;;4.20;1.70;;;7.00;99.90;;;;;;4994917;28;20482;-78
2021/11/05 06:12:50;;;;;;;1.75;1.65;;;7.10;99.90;;;;;;4977874;28;20027;-77
2021/11/05 06:15:16;;;;;;;1.60;1.50;;;7.10;99.90;;;;;;4988366;28;20034;-79
2021/11/05 06:17:41;;;;;;;3.47;1.33;;;7.10;99.90;;;;;;4991421;28;20035;-78
2021/11/05 06:20:08;;;;;;;1.63;1.48;;;7.00;99.90;;;;;;4980339;28;21537;-79
2021/11/05 06:22:33;;;;;;;1.67;1.58;;;7.00;99.90;;;;;;4965400;28;20106;-79
2021/11/05 06:25:00;;;;;;;1.83;1.73;;;7.10;99.90;;;;;;4983489;28;20081;-79
2021/11/05 06:27:27;;;;;;;2.08;1.63;;;7.10;99.90;;;;;;4983634;28;20047;-78
2021/11/05 06:29:53;;;;;;;3.08;2.20;;;7.10;99.90;;;;;;4989717;28;20023;-76
2021/11/05 06:32:19;;;;;;;6.95;5.25;;;7.20;99.90;;;;;;4992556;28;20027;-76
2021/11/05 06:34:44;;;;;;;2.15;1.95;;;7.30;99.90;;;;;;4993251;28;20078;-77
2021/11/05 06:37:10;;;;;;;1.83;1.70;;;7.20;99.90;;;;;;4994765;28;20038;-77
2021/11/05 06:39:36;;;;;;;2.08;1.85;;;7.20;99.90;;;;;;4995470;28;20021;-79
2021/11/05 06:42:02;;;;;;;2.83;2.15;;;7.20;99.90;;;;;;4982138;28;20031;-78
2021/11/05 06:44:28;;;;;;;4.03;2.17;;;7.30;99.90;;;;;;4984605;28;20023;-78
2021/11/05 06:46:54;;;;;;;4.00;2.30;;;7.30;99.90;;;;;;4980306;28;20538;-76
2021/11/05 06:49:19;;;;;;;3.85;2.03;;;7.30;99.90;;;;;;4997581;28;20037;-78
2021/11/05 06:51:45;;;;;;;2.00;1.88;;;7.30;99.90;;;;;;4985520;28;20063;-78
2021/11/05 06:54:11;;;;;;;2.47;1.70;;;7.30;99.90;;;;;;4993032;28;20033;-76
2021/11/05 06:56:36;;;;;;;2.13;1.92;;;7.40;99.90;;;;;;4987089;28;20081;-78
2021/11/05 06:59:03;;;;;;;3.17;2.50;;;7.40;99.90;;;;;;4987804;28;20101;-79
2021/11/05 07:01:28;;;;;;;6.22;2.67;;;7.50;99.90;;;;;;4978675;28;20112;-78
2021/11/05 07:03:54;;;;;;;2.80;2.60;;;7.40;99.90;;;;;;4986051;28;20056;-79
2021/11/05 07:06:21;;;;;;;2.63;2.40;;;7.50;99.90;;;;;;4984623;28;20098;-78
2021/11/05 07:08:47;;;;;;;4.63;2.60;;;7.50;99.90;;;;;;4973265;28;20058;-77
2021/11/05 07:11:13;;;;;;;8.15;2.40;;;7.40;99.90;;;;;;4989647;28;20034;-78
2021/11/05 07:13:38;;;;;;;3.67;2.28;;;7.40;99.90;;;;;;4991927;28;20111;-78
2021/11/05 07:16:04;;;;;;;2.35;2.15;;;7.40;99.90;;;;;;4985466;28;20483;-78
2021/11/05 07:18:32;;;;;;;8.30;2.65;;;7.40;99.90;;;;;;4981460;28;20026;-78
2021/11/05 07:21:01;;;;;;;2.88;1.98;;;7.50;99.90;;;;;;4997307;28;20022;-80
2021/11/05 07:23:27;;;;;;;2.35;2.13;;;7.40;99.90;;;;;;4975134;28;20030;-78
2021/11/05 07:25:53;;;;;;;3.08;2.53;;;7.40;99.90;;;;;;4982015;28;20034;-78
2021/11/05 07:28:19;;;;;;;2.45;2.25;;;7.40;99.90;;;;;;4987207;28;20031;-78
2021/11/05 07:30:44;;;;;;;4.68;2.30;;;7.40;99.90;;;;;;4967955;28;20067;-78
2021/11/05 07:33:10;;;;;;;7.80;2.72;;;7.40;99.90;;;;;;4971838;28;20026;-78
2021/11/05 07:35:35;;;;;;;3.33;1.90;;;7.40;99.90;;;;;;4976320;28;20086;-78
2021/11/05 07:38:02;;;;;;;2.28;2.08;;;7.50;99.90;;;;;;4984385;28;20056;-84
2021/11/05 07:40:28;;;;;;;2.90;2.60;;;7.50;99.90;;;;;;4983784;28;20058;-83
2021/11/05 07:42:54;;;;;;;2.60;2.15;;;7.50;99.90;;;;;;4984546;28;20015;-82
2021/11/05 07:45:19;;;;;;;4.28;2.70;;;7.60;99.90;;;;;;4984248;28;20058;-81
2021/11/05 07:47:47;;;;;;;3.08;2.78;;;7.60;99.90;;;;;;4973770;28;20050;-80
2021/11/05 07:50:15;;;;;;;3.38;2.33;;;7.60;99.90;;;;;;4975540;28;20043;-81
2021/11/05 07:52:40;;;;;;;2.50;2.10;;;7.60;99.90;;;;;;4965125;28;20055;-80
2021/11/05 07:55:07;;;;;;;3.47;2.30;;;7.60;99.90;;;;;;4968595;28;20026;-80
2021/11/05 07:57:34;;;;;;;3.38;3.08;;;7.70;99.90;;;;;;4996078;28;20022;-80
2021/11/05 07:59:59;;;;;;;3.17;2.30;;;7.70;99.90;;;;;;4983610;28;20035;-82
2021/11/05 08:02:25;;;;;;;3.58;2.85;;;7.70;99.90;;;;;;4979133;28;20081;-79
2021/11/05 08:04:51;;;;;;;3.33;3.03;;;7.80;99.90;;;;;;4973109;28;20034;-81
2021/11/05 08:07:20;;;;;;;2.63;2.42;;;7.80;99.90;;;;;;4972813;28;20026;-81
2021/11/05 08:09:46;;;;;;;2.30;2.10;;;7.80;99.90;;;;;;4977920;28;20042;-78
2021/11/05 08:12:12;;;;;;;3.15;2.15;;;7.80;99.90;;;;;;4977739;28;20031;-79
2021/11/05 08:14:39;;;;;;;2.25;1.52;;;7.90;99.90;;;;;;4991040;28;20018;-76
2021/11/05 08:17:05;;;;;;;1.58;1.48;;;7.80;99.90;;;;;;4989761;28;20019;-79
2021/11/05 08:19:30;;;;;;;1.48;1.33;;;7.90;99.90;;;;;;4987312;28;20105;-81
2021/11/05 08:21:56;;;;;;;2.95;1.38;;;7.90;99.90;;;;;;4979873;28;20125;-79
2021/11/05 08:24:22;;;;;;;1.75;1.35;;;7.90;99.90;;;;;;4978337;28;20027;-80
2021/11/05 08:26:48;;;;;;;4.90;1.40;;;8.00;99.90;;;;;;4980574;28;20034;-79
2021/11/05 08:29:14;;;;;;;1.48;1.38;;;7.90;99.90;;;;;;4978220;28;20027;-81
2021/11/05 08:31:39;;;;;;;1.42;1.33;;;8.00;99.90;;;;;;4982427;28;20095;-80
2021/11/05 08:34:06;;;;;;;1.95;1.60;;;8.10;99.90;;;;;;4991960;28;20034;-77
2021/11/05 08:36:31;;;;;;;2.53;1.58;;;8.20;99.90;;;;;;4998370;28;20248;-79
2021/11/05 08:38:57;;;;;;;1.52;1.42;;;8.10;99.90;;;;;;4988152;28;20074;-79
2021/11/05 08:41:23;;;;;;;2.65;1.70;;;8.20;99.90;;;;;;5004642;28;20035;-76
2021/11/05 08:43:52;;;;;;;1.63;1.52;;;8.30;99.90;;;;;;4999925;28;20062;-78
2021/11/05 08:46:20;;;;;;;1.60;1.20;;;8.30;99.90;;;;;;4993280;28;20015;-77
2021/11/05 08:48:55;;;;;;;2.22;2.05;;;8.30;99.90;;;;;;4994837;28;20017;-77
2021/11/05 08:51:22;;;;;;;1.80;1.70;;;8.50;99.90;;;;;;4977490;28;20039;-80
2021/11/05 08:53:48;;;;;;;2.25;1.73;;;8.60;99.90;;;;;;4969757;28;20022;-79
2021/11/05 08:56:14;;;;;;;1.75;1.65;;;8.60;99.90;;;;;;4982288;28;20035;-79
2021/11/05 08:58:40;;;;;;;3.50;1.60;;;8.70;99.90;;;;;;4981331;28;20027;-80
2021/11/05 09:01:06;;;;;;;2.10;1.95;;;8.80;99.90;;;;;;4982232;28;20042;-79
2021/11/05 09:03:33;;;;;;;2.10;1.52;;;8.80;99.90;;;;;;4982826;28;20074;-80
2021/11/05 09:05:59;;;;;;;2.00;1.85;;;8.80;99.90;;;;;;4976250;28;20041;-80
2021/11/05 09:08:29;;;;;;;2.42;2.00;;;8.90;99.90;;;;;;4961960;28;20028;-80
2021/11/05 09:10:56;;;;;;;3.13;2.00;;;9.00;99.90;;;;;;4962494;28;20034;-80
2021/11/05 09:13:21;;;;;;;5.38;1.90;;;9.00;99.90;;;;;;4975249;28;20027;-80
2021/11/05 09:15:47;;;;;;;2.05;1.85;;;9.00;99.90;;;;;;4995983;28;20030;-80
2021/11/05 09:18:13;;;;;;;2.58;1.98;;;9.00;99.90;;;;;;4979874;28;20055;-80
2021/11/05 09:20:39;;;;;;;3.58;2.17;;;9.10;99.90;;;;;;4976003;28;20151;-80
2021/11/05 09:23:05;;;;;;;3.22;1.70;;;9.20;99.90;;;;;;4968991;28;20034;-79
2021/11/05 09:25:31;;;;;;;1.95;1.65;;;9.20;99.90;;;;;;4977108;28;20031;-78
2021/11/05 09:27:57;;;;;;;2.63;1.83;;;9.70;99.90;;;;;;4978184;28;20494;-81
2021/11/05 09:30:23;;;;;;;3.15;2.00;;;9.70;99.90;;;;;;4979917;28;20050;-77
2021/11/05 09:32:52;;;;;;;2.25;1.90;;;9.90;99.90;;;;;;4963801;28;20027;-80
2021/11/05 09:35:19;;;;;;;1.70;1.60;;;9.80;99.90;;;;;;4964241;28;20020;-76
2021/11/05 09:37:45;;;;;;;6.95;1.73;;;10.00;99.90;;;;;;4980649;28;20091;-79
2021/11/05 09:40:15;;;;;;;4.82;2.15;;;10.30;99.90;;;;;;4978037;28;20086;-80
2021/11/05 09:42:42;;;;;;;2.58;2.38;;;9.90;99.90;;;;;;4967992;28;20366;-81
2021/11/05 09:45:08;;;;;;;2.30;1.70;;;9.80;99.90;;;;;;4973484;28;20031;-81
2021/11/05 09:47:34;;;;;;;5.20;2.40;;;9.80;99.90;;;;;;4977829;28;20197;-79
2021/11/05 09:50:00;;;;;;;4.68;2.28;;;9.80;99.90;;;;;;4977437;28;20353;-81
2021/11/05 09:52:26;;;;;;;3.53;2.08;;;9.60;99.90;;;;;;4993843;28;20483;-79
2021/11/05 09:54:53;;;;;;;3.60;2.70;;;9.60;99.90;;;;;;4990746;28;20027;-80
2021/11/05 09:57:20;;;;;;;3.05;2.35;;;9.80;99.90;;;;;;4991777;28;20030;-79
2021/11/05 09:59:45;;;;;;;4.68;2.50;;;9.90;99.90;;;;;;4989945;28;20063;-78
2021/11/05 10:02:15;;;;;;;3.15;2.25;;;9.70;99.90;;;;;;4988357;28;20043;-79
2021/11/05 10:04:41;;;;;;;3.75;2.42;;;9.70;99.90;;;;;;4978449;28;20039;-79
2021/11/05 10:07:11;;;;;;;2.75;2.10;;;9.70;99.90;;;;;;4970747;28;20031;-77
2021/11/05 10:09:40;;;;;;;3.33;3.03;;;9.60;99.90;;;;;;4975870;28;20361;-79
2021/11/05 10:12:08;;;;;;;3.97;2.20;;;9.60;99.90;;;;;;4983066;28;20033;-80
2021/11/05 10:14:34;;;;;;;3.08;2.22;;;9.50;99.90;;;;;;4978299;28;20050;-80
2021/11/05 10:17:03;;;;;;;3.22;2.92;;;9.50;99.90;;;;;;4999853;28;20026;-79
2021/11/05 10:20:02;;;;;;;3.20;2.50;;;9.50;99.90;;;;;;4985813;28;20169;-80
2021/11/05 10:22:49;;;;;;;3.03;2.50;;;9.50;99.90;;;;;;4980366;28;20530;-81
2021/11/05 10:25:18;;;;;;;3.00;2.53;;;9.50;99.90;;;;;;4982799;28;20039;-78
2021/11/05 10:27:44;;;;;;;3.03;2.55;;;9.70;99.90;;;;;;4983058;28;20030;-79
2021/11/05 10:30:10;;;;;;;4.20;2.80;;;9.80;99.90;;;;;;4984071;28;20119;-78
2021/11/05 10:32:40;;;;;;;3.08;2.78;;;9.90;99.90;;;;;;4966733;28;20025;-80
2021/11/05 10:35:20;;;;;;;3.67;2.97;;;9.80;99.90;;;;;;4975081;28;20047;-79
2021/11/05 10:37:46;;;;;;;3.15;2.85;;;10.00;99.90;;;;;;4980058;28;20027;-80
2021/11/05 10:40:15;;;;;;;2.97;2.78;;;10.20;99.90;;;;;;4981027;28;20042;-80
2021/11/05 10:42:47;;;;;;;2.85;2.35;;;10.30;99.90;;;;;;4970045;28;20027;-82
2021/11/05 10:45:18;;;;;;;4.18;3.08;;;10.30;99.90;;;;;;4973805;28;20031;-81
2021/11/05 10:48:01;;;;;;;3.22;2.60;;;10.40;99.90;;;;;;4975819;28;20055;-78
2021/11/05 10:50:34;;;;;;;3.13;2.83;;;10.30;99.90;;;;;;4964071;28;20027;-79
2021/11/05 10:53:01;;;;;;;5.43;3.40;;;10.40;99.90;;;;;;4963247;28;20028;-81
2021/11/05 10:55:48;;;;;;;3.08;2.78;;;10.70;99.90;;;;;;4962000;28;20034;-80
2021/11/05 10:58:25;;;;;;;3.30;3.00;;;11.00;99.90;;;;;;4960928;28;20102;-81
2021/11/05 11:00:59;;;;;;;4.40;3.75;;;11.00;99.90;;;;;;4968525;28;20027;-79
2021/11/05 11:03:33;;;;;;;5.00;4.03;;;11.00;99.90;;;;;;4979891;28;20042;-79
2021/11/05 11:06:03;;;;;;;6.80;3.70;;;10.90;99.90;;;;;;4974891;28;20031;-79
2021/11/05 11:08:33;;;;;;;4.13;3.70;;;10.90;99.90;;;;;;4963058;28;20027;-80
2021/11/05 11:11:20;;;;;;;5.30;4.80;;;10.70;99.90;;;;;;4961849;28;20096;-80
2021/11/05 11:13:48;;;;;;;3.88;3.45;;;10.60;99.90;;;;;;4973766;28;20035;-79
2021/11/05 11:16:23;;;;;;;4.65;4.25;;;10.40;99.90;;;;;;4970116;28;20037;-80
2021/11/05 11:19:01;;;;;;;4.53;4.07;;;10.70;99.90;;;;;;4967047;28;20046;-79
2021/11/05 11:21:50;;;;;;;4.32;3.92;;;10.90;99.90;;;;;;4962241;28;20019;-79
2021/11/05 11:24:21;;;;;;;4.72;4.32;;;10.70;99.90;;;;;;4980968;28;20026;-79
2021/11/05 11:26:49;;;;;;;4.55;3.83;;;10.50;99.90;;;;;;4963320;28;20034;-79
2021/11/05 11:29:16;;;;;;;3.72;3.42;;;10.40;99.90;;;;;;4977900;28;20515;-79
2021/11/05 11:31:43;;;;;;;4.63;4.20;;;10.60;99.90;;;;;;4957139;28;20027;-79
2021/11/05 11:34:10;;;;;;;4.85;4.35;;;10.40;99.90;;;;;;4966823;28;20029;-79
2021/11/05 11:36:41;;;;;;;4.68;4.28;;;10.40;99.90;;;;;;4987850;28;20493;-80
2021/11/05 11:39:10;;;;;;;5.15;4.30;;;10.30;99.90;;;;;;5029061;23;20030;-77
2021/11/05 11:41:36;;;;;;;4.07;3.70;;;10.40;99.90;;;;;;5016489;28;20007;-78
2021/11/05 11:44:03;;;;;;;3.63;3.25;;;10.40;99.90;;;;;;5015945;28;20033;-78
2021/11/05 11:46:48;;;;;;;5.75;4.40;;;10.50;99.90;;;;;;5014192;28;20085;-78
2021/11/05 11:49:37;;;;;;;4.95;4.55;;;10.60;99.90;;;;;;5015842;28;20015;-76
2021/11/05 11:52:05;;;;;;;4.88;4.35;;;10.60;99.90;;;;;;5014899;23;20054;-77
2021/11/05 11:54:33;;;;;;;4.35;4.03;;;10.70;99.90;;;;;;5014287;28;20026;-77
2021/11/05 11:57:19;;;;;;;3.88;3.58;;;10.70;99.90;;;;;;5014390;28;20022;-78
2021/11/05 12:00:00;;;;;;;3.80;3.50;;;10.80;99.90;;;;;;5008155;28;20011;-77
2021/11/05 12:02:41;;;;;;;4.20;3.80;;;10.70;99.90;;;;;;4995991;28;20483;-77
2021/11/05 12:05:23;;;;;;;3.70;3.40;;;10.70;99.90;;;;;;4995279;28;20046;-77
2021/11/05 12:08:11;;;;;;;4.10;3.70;;;10.60;99.90;;;;;;4996748;28;20053;-76
2021/11/05 12:10:37;;;;;;;4.35;3.95;;;10.50;99.90;;;;;;4996078;28;20026;-78
2021/11/05 12:13:32;;;;;;;4.75;4.25;;;10.40;99.90;;;;;;4997761;28;20472;-78
2021/11/05 12:16:09;;;;;;;5.10;4.45;;;10.60;99.90;;;;;;4996959;28;20027;-78
2021/11/05 12:19:02;;;;;;;4.60;4.20;;;10.50;99.90;;;;;;5002334;28;20023;-77
2021/11/05 12:21:38;;;;;;;5.10;4.28;;;10.50;99.90;;;;;;4989649;28;20088;-77
2021/11/05 12:24:16;;;;;;;4.40;4.00;;;10.80;99.90;;;;;;4998940;28;20459;-76
2021/11/05 12:26:50;;;;;;;4.00;3.63;;;10.70;99.90;;;;;;4998830;28;20014;-76
2021/11/05 12:29:37;;;;;;;4.43;3.95;;;10.70;99.90;;;;;;4999890;28;20447;-76
2021/11/05 12:32:14;;;;;;;4.38;3.97;;;10.70;99.90;;;;;;4997768;28;20049;-77
2021/11/05 12:34:45;;;;;;;4.50;4.10;;;10.60;99.90;;;;;;4998582;28;20018;-75
2021/11/05 12:37:13;;;;;;;5.13;4.63;;;10.50;99.90;;;;;;5017496;28;20033;-76
2021/11/05 12:39:40;;;;;;;5.82;4.93;;;10.60;99.90;;;;;;4993100;28;20073;-76
2021/11/05 12:42:15;;;;;;;5.22;4.72;;;10.70;99.90;;;;;;4998478;28;20027;-76
2021/11/05 12:45:00;;;;;;;5.38;4.88;;;10.70;99.90;;;;;;5002122;28;20062;-76
2021/11/05 12:47:47;;;;;;;5.05;4.63;;;10.60;99.90;;;;;;5001848;28;20023;-77
2021/11/05 12:50:16;;;;;;;5.88;5.38;;;10.60;99.90;;;;;;5002475;28;20038;-76
2021/11/05 12:52:55;;;;;;;5.43;5.03;;;10.60;99.90;;;;;;4984999;28;20052;-76
2021/11/05 12:55:23;;;;;;;5.57;5.07;;;10.60;99.90;;;;;;5001470;28;20077;-76
2021/11/05 12:57:51;;;;;;;5.55;5.05;;;10.70;99.90;;;;;;5004965;28;20023;-77